Time,TemperatureF,DewpointF,PressureIn,WindDirection,WindDirectionDegrees,WindSpeedMPH,WindSpeedGustMPH,Humidity,HourlyPrecipIn,Conditions,Clouds,dailyrainin,SoftwareType,DateUTC
2013-03-17 00:11:00,52.6,50.9,30.01,NE,46,0.0,0.0,94,0.00,,,0.00,Wunderground v.1.13,2013-03-17 07:11:00,
2013-03-17 00:26:00,52.1,50.1,30.00,NE,46,0.0,0.0,93,0.00,,,0.00,Wunderground v.1.13,2013-03-17 07:26:00,
2013-03-17 00:36:00,52.1,50.4,30.00,NE,46,0.0,0.0,94,0.00,,,0.00,Wunderground v.1.13,2013-03-17 07:36:00,
2013-03-17 00:46:00,52.0,50.3,30.00,NE,46,0.0,0.0,94,0.00,,,0.00,Wunderground v.1.13,2013-03-17 07:46:00,
2013-03-17 00:51:00,51.9,50.2,30.00,NE,46,0.0,0.0,94,0.00,,,0.00,Wunderground v.1.13,2013-03-17 07:51:00,
2013-03-17 01:01:00,51.9,50.2,30.00,NE,46,0.0,0.0,94,0.00,,,0.00,Wunderground v.1.13,2013-03-17 08:01:00,
2013-03-17 01:11:00,51.8,50.1,30.00,NE,46,0.0,0.0,94,0.00,,,0.00,Wunderground v.1.13,2013-03-17 08:11:00,
2013-03-17 01:21:00,52.1,50.4,30.00,NE,46,0.0,0.0,94,0.00,,,0.00,Wunderground v.1.13,2013-03-17 08:21:00,
2013-03-17 01:36:00,52.9,51.2,30.00,NE,45,0.0,0.0,94,0.00,,,0.00,Wunderground v.1.13,2013-03-17 08:36:00,
2013-03-17 01:41:00,52.7,51.0,30.00,NE,46,0.0,0.0,94,0.00,,,0.00,Wunderground v.1.13,2013-03-17 08:41:00,
2013-03-17 01:56:00,52.6,50.9,30.00,NE,46,0.0,0.0,94,0.00,,,0.00,Wunderground v.1.13,2013-03-17 08:56:00,
2013-03-17 02:01:00,52.7,51.0,30.00,NE,45,0.0,0.0,94,0.00,,,0.00,Wunderground v.1.13,2013-03-17 09:01:00,
2013-03-17 02:21:00,52.7,51.0,30.00,NE,45,0.0,0.0,94,0.00,,,0.00,Wunderground v.1.13,2013-03-17 09:21:00,
2013-03-17 02:26:00,52.8,51.1,30.00,NE,46,0.0,0.0,94,0.00,,,0.00,Wunderground v.1.13,2013-03-17 09:26:00,
2013-03-17 02:41:00,52.7,51.0,30.00,NE,45,0.0,0.0,94,0.00,,,0.00,Wunderground v.1.13,2013-03-17 09:41:00,
2013-03-17 02:56:00,52.8,51.1,30.00,NE,46,0.0,0.0,94,0.00,,,0.00,Wunderground v.1.13,2013-03-17 09:56:00,
2013-03-17 03:01:00,52.8,51.1,30.00,NE,46,0.0,0.0,94,0.00,,,0.00,Wunderground v.1.13,2013-03-17 10:01:00,
2013-03-17 03:16:00,53.1,51.7,30.00,NE,45,0.0,0.0,95,0.00,,,0.00,Wunderground v.1.13,2013-03-17 10:16:00,
2013-03-17 03:41:00,53.6,52.2,30.00,NE,45,0.0,0.0,95,0.00,,,0.00,Wunderground v.1.13,2013-03-17 10:41:00,
2013-03-17 03:46:00,53.7,52.3,29.99,NE,46,0.0,0.0,95,0.00,,,0.00,Wunderground v.1.13,2013-03-17 10:46:00,
2013-03-17 04:06:00,53.8,52.4,30.00,NE,46,0.0,0.0,95,0.00,,,0.00,Wunderground v.1.13,2013-03-17 11:06:00,
2013-03-17 04:11:00,53.8,52.4,29.99,NE,46,0.0,0.0,95,0.00,,,0.00,Wunderground v.1.13,2013-03-17 11:11:00,
2013-03-17 04:16:00,53.7,52.3,30.00,NE,46,0.0,0.0,95,0.00,,,0.00,Wunderground v.1.13,2013-03-17 11:16:00,
2013-03-17 04:36:00,53.5,52.1,30.00,NE,45,0.0,0.0,95,0.00,,,0.00,Wunderground v.1.13,2013-03-17 11:36:00,
2013-03-17 04:41:00,53.5,52.1,30.00,NE,45,0.0,0.0,95,0.00,,,0.00,Wunderground v.1.13,2013-03-17 11:41:00,
2013-03-17 05:11:00,53.1,51.7,30.00,NE,47,0.0,1.0,95,0.00,,,0.00,Wunderground v.1.13,2013-03-17 12:11:00,
2013-03-17 05:26:00,52.9,51.5,30.00,NE,49,0.0,0.0,95,0.00,,,0.00,Wunderground v.1.13,2013-03-17 12:26:00,
2013-03-17 05:36:00,52.8,51.4,30.00,NE,55,0.0,0.0,95,0.00,,,0.00,Wunderground v.1.13,2013-03-17 12:36:00,
2013-03-17 05:46:00,52.7,51.3,30.01,NE,55,0.0,0.0,95,0.00,,,0.00,Wunderground v.1.13,2013-03-17 12:46:00,
2013-03-17 06:01:00,52.7,51.3,30.02,NE,55,0.0,0.0,95,0.00,,,0.00,Wunderground v.1.13,2013-03-17 13:01:00,
2013-03-17 06:21:00,52.6,51.2,30.02,ENE,62,0.0,0.0,95,0.00,,,0.00,Wunderground v.1.13,2013-03-17 13:21:00,
2013-03-17 06:31:00,52.5,51.1,30.02,ENE,68,0.0,0.0,95,0.00,,,0.00,Wunderground v.1.13,2013-03-17 13:31:00,
2013-03-17 06:41:00,52.2,50.8,30.02,East,98,1.0,1.0,95,0.00,,,0.00,Wunderground v.1.13,2013-03-17 13:41:00,
2013-03-17 07:01:00,51.7,50.3,30.02,ESE,107,0.0,0.0,95,0.00,,,0.00,Wunderground v.1.13,2013-03-17 14:01:00,
2013-03-17 07:11:00,51.5,50.1,30.02,ESE,108,0.0,0.0,95,0.00,,,0.00,Wunderground v.1.13,2013-03-17 14:11:00,
2013-03-17 07:21:00,51.2,49.8,30.02,SE,127,1.0,1.0,95,0.00,,,0.00,Wunderground v.1.13,2013-03-17 14:21:00,
2013-03-17 07:26:00,51.1,49.7,30.02,SE,128,0.0,0.0,95,0.00,,,0.00,Wunderground v.1.13,2013-03-17 14:26:00,
2013-03-17 07:41:00,50.7,49.3,30.02,SE,144,1.0,1.0,95,0.00,,,0.00,Wunderground v.1.13,2013-03-17 14:41:00,
2013-03-17 07:56:00,50.6,49.2,30.02,SSE,150,0.0,0.0,95,0.00,,,0.00,Wunderground v.1.13,2013-03-17 14:56:00,
2013-03-17 08:06:00,50.4,49.0,30.03,SSE,150,0.0,0.0,95,0.00,,,0.00,Wunderground v.1.13,2013-03-17 15:06:00,
2013-03-17 08:11:00,50.4,49.3,30.03,SSE,150,0.0,0.0,96,0.00,,,0.00,Wunderground v.1.13,2013-03-17 15:11:00,
2013-03-17 08:21:00,50.4,49.3,30.04,SSE,150,0.0,0.0,96,0.00,,,0.00,Wunderground v.1.13,2013-03-17 15:21:00,
2013-03-17 08:26:00,50.5,49.4,30.04,SSE,150,0.0,0.0,96,0.00,,,0.00,Wunderground v.1.13,2013-03-17 15:26:00,
2013-03-17 08:31:00,50.6,49.5,30.04,SSE,149,0.0,0.0,96,0.00,,,0.00,Wunderground v.1.13,2013-03-17 15:31:00,
2013-03-17 08:36:00,50.7,49.6,30.04,SSE,150,0.0,0.0,96,0.00,,,0.00,Wunderground v.1.13,2013-03-17 15:36:00,
2013-03-17 08:46:00,51.3,50.2,30.04,SSE,149,0.0,0.0,96,0.00,,,0.00,Wunderground v.1.13,2013-03-17 15:46:00,
2013-03-17 08:51:00,51.6,50.5,30.04,SSE,150,0.0,0.0,96,0.00,,,0.00,Wunderground v.1.13,2013-03-17 15:51:00,
2013-03-17 09:01:00,52.1,51.0,30.05,SSE,150,0.0,0.0,96,0.00,,,0.00,Wunderground v.1.13,2013-03-17 16:01:00,
2013-03-17 09:11:00,52.3,51.2,30.05,SSE,150,0.0,0.0,96,0.00,,,0.00,Wunderground v.1.13,2013-03-17 16:11:00,
2013-03-17 09:36:00,53.0,51.9,30.05,SSE,150,0.0,0.0,96,0.00,,,0.00,Wunderground v.1.13,2013-03-17 16:36:00,
2013-03-17 09:46:00,53.5,52.4,30.05,SSE,150,0.0,0.0,96,0.00,,,0.00,Wunderground v.1.13,2013-03-17 16:46:00,
2013-03-17 10:06:00,53.7,52.6,30.06,SSE,150,0.0,0.0,96,0.00,,,0.00,Wunderground v.1.13,2013-03-17 17:06:00,
2013-03-17 10:31:00,54.2,52.8,30.06,SSE,147,1.0,1.0,95,0.00,,,0.00,Wunderground v.1.13,2013-03-17 17:31:00,
2013-03-17 10:46:00,54.5,53.1,30.06,SSE,160,0.0,0.0,95,0.00,,,0.00,Wunderground v.1.13,2013-03-17 17:46:00,
2013-03-17 10:56:00,55.1,53.7,30.06,South,172,0.0,0.0,95,0.00,,,0.00,Wunderground v.1.13,2013-03-17 17:56:00,
2013-03-17 11:11:00,55.1,52.8,30.06,WSW,237,1.0,3.0,92,0.00,,,0.00,Wunderground v.1.13,2013-03-17 18:11:00,
2013-03-17 11:16:00,55.8,53.8,30.06,WSW,238,1.0,1.0,93,0.00,,,0.00,Wunderground v.1.13,2013-03-17 18:16:00,
2013-03-17 11:26:00,55.9,53.3,30.06,West,265,2.0,2.0,91,0.00,,,0.00,Wunderground v.1.13,2013-03-17 18:26:00,
2013-03-17 11:31:00,55.9,53.3,30.05,West,279,3.0,3.0,91,0.00,,,0.00,Wunderground v.1.13,2013-03-17 18:31:00,
2013-03-17 11:36:00,56.2,53.6,30.05,West,280,2.0,2.0,91,0.00,,,0.00,Wunderground v.1.13,2013-03-17 18:36:00,
2013-03-17 11:56:00,55.7,52.8,30.05,WNW,296,1.0,1.0,90,0.00,,,0.00,Wunderground v.1.13,2013-03-17 18:56:00,
2013-03-17 12:16:00,58.9,54.4,30.04,NW,310,1.0,3.0,85,0.00,,,0.00,Wunderground v.1.13,2013-03-17 19:16:00,
2013-03-17 12:26:00,58.2,54.0,30.04,North,11,3.0,3.0,86,0.00,,,0.00,Wunderground v.1.13,2013-03-17 19:26:00,
2013-03-17 12:46:00,58.3,53.8,30.04,NNW,327,2.0,2.0,85,0.00,,,0.00,Wunderground v.1.13,2013-03-17 19:46:00,
2013-03-17 12:51:00,58.4,54.2,30.04,NW,326,3.0,3.0,86,0.00,,,0.00,Wunderground v.1.13,2013-03-17 19:51:00,
2013-03-17 13:01:00,59.4,54.9,30.03,NNW,333,1.0,1.0,85,0.00,,,0.00,Wunderground v.1.13,2013-03-17 20:01:00,
2013-03-17 13:06:00,59.7,54.9,30.03,NNW,336,1.0,4.0,84,0.00,,,0.00,Wunderground v.1.13,2013-03-17 20:06:00,
2013-03-17 13:31:00,60.8,54.9,30.02,North,349,0.0,0.0,81,0.00,,,0.00,Wunderground v.1.13,2013-03-17 20:31:00,
2013-03-17 13:46:00,61.3,55.1,30.02,NNW,335,1.0,1.0,80,0.00,,,0.00,Wunderground v.1.13,2013-03-17 20:46:00,
2013-03-17 13:51:00,61.1,55.6,30.01,NNW,346,1.0,1.0,82,0.00,,,0.00,Wunderground v.1.13,2013-03-17 20:51:00,
2013-03-17 13:56:00,60.2,54.3,30.01,NNW,331,1.0,6.0,81,0.00,,,0.00,Wunderground v.1.13,2013-03-17 20:56:00,
2013-03-17 14:11:00,61.4,55.5,30.00,NW,317,1.0,1.0,81,0.00,,,0.00,Wunderground v.1.13,2013-03-17 21:11:00,
2013-03-17 14:21:00,60.0,54.8,30.00,NNW,341,2.0,2.0,83,0.00,,,0.00,Wunderground v.1.13,2013-03-17 21:21:00,
2013-03-17 14:31:00,61.7,56.1,29.99,NNW,348,1.0,1.0,82,0.00,,,0.00,Wunderground v.1.13,2013-03-17 21:31:00,
2013-03-17 14:36:00,62.0,55.4,29.99,NNW,330,1.0,1.0,79,0.00,,,0.00,Wunderground v.1.13,2013-03-17 21:36:00,
2013-03-17 14:41:00,60.5,55.0,29.99,NNW,329,3.0,6.0,82,0.00,,,0.00,Wunderground v.1.13,2013-03-17 21:41:00,
2013-03-17 15:01:00,60.9,55.7,29.99,NNW,338,3.0,3.0,83,0.00,,,0.00,Wunderground v.1.13,2013-03-17 22:01:00,
2013-03-17 15:11:00,61.7,55.8,29.99,North,9,2.0,2.0,81,0.00,,,0.00,Wunderground v.1.13,2013-03-17 22:11:00,
2013-03-17 15:26:00,61.3,55.8,29.99,NNW,347,2.0,2.0,82,0.00,,,0.00,Wunderground v.1.13,2013-03-17 22:26:00,
2013-03-17 15:31:00,60.7,54.8,29.99,NNW,334,2.0,2.0,81,0.00,,,0.00,Wunderground v.1.13,2013-03-17 22:31:00,
2013-03-17 15:41:00,60.3,55.4,29.99,NW,319,2.0,2.0,84,0.00,,,0.00,Wunderground v.1.13,2013-03-17 22:41:00,
2013-03-17 15:51:00,60.8,54.9,29.99,NNE,14,1.0,1.0,81,0.00,,,0.00,Wunderground v.1.13,2013-03-17 22:51:00,
2013-03-17 15:56:00,60.8,55.6,29.99,NNW,329,1.0,1.0,83,0.00,,,0.00,Wunderground v.1.13,2013-03-17 22:56:00,
2013-03-17 16:11:00,60.5,55.6,29.98,NNW,334,2.0,5.0,84,0.00,,,0.00,Wunderground v.1.13,2013-03-17 23:11:00,
2013-03-17 16:26:00,60.7,56.2,29.99,NNW,338,2.0,2.0,85,0.00,,,0.00,Wunderground v.1.13,2013-03-17 23:26:00,
2013-03-17 16:41:00,60.3,55.8,29.98,NW,315,4.0,4.0,85,0.00,,,0.00,Wunderground v.1.13,2013-03-17 23:41:00,
2013-03-17 16:51:00,60.7,56.5,29.98,NNW,340,2.0,2.0,86,0.00,,,0.00,Wunderground v.1.13,2013-03-17 23:51:00,
2013-03-17 17:01:00,60.1,55.6,29.98,NNW,329,3.0,5.0,85,0.00,,,0.00,Wunderground v.1.13,2013-03-18 00:01:00,
2013-03-17 17:06:00,59.6,55.1,29.97,NNW,344,4.0,6.0,85,0.00,,,0.00,Wunderground v.1.13,2013-03-18 00:06:00,
2013-03-17 17:16:00,59.9,55.7,29.98,NNW,340,4.0,4.0,86,0.00,,,0.00,Wunderground v.1.13,2013-03-18 00:16:00,
2013-03-17 17:26:00,60.0,55.8,29.98,NNW,348,3.0,6.0,86,0.00,,,0.00,Wunderground v.1.13,2013-03-18 00:26:00,
2013-03-17 17:31:00,59.6,55.4,29.99,NNW,338,4.0,4.0,86,0.00,,,0.00,Wunderground v.1.13,2013-03-18 00:31:00,
2013-03-17 17:46:00,58.9,55.4,29.99,North,355,4.0,4.0,88,0.00,,,0.00,Wunderground v.1.13,2013-03-18 00:46:00,
2013-03-17 17:51:00,58.3,54.8,29.99,NW,323,4.0,4.0,88,0.00,,,0.00,Wunderground v.1.13,2013-03-18 00:51:00,
2013-03-17 18:11:00,58.0,54.8,29.99,NNW,333,4.0,4.0,89,0.00,,,0.00,Wunderground v.1.13,2013-03-18 01:11:00,
2013-03-17 18:16:00,57.9,54.7,29.99,NNW,331,3.0,3.0,89,0.00,,,0.00,Wunderground v.1.13,2013-03-18 01:16:00,
2013-03-17 18:21:00,57.7,54.5,30.00,NNW,336,3.0,3.0,89,0.00,,,0.00,Wunderground v.1.13,2013-03-18 01:21:00,
2013-03-17 18:26:00,57.6,54.7,29.99,NNW,344,3.0,5.0,90,0.00,,,0.00,Wunderground v.1.13,2013-03-18 01:26:00,
2013-03-17 18:41:00,57.6,54.7,30.00,NNW,342,2.0,3.0,90,0.00,,,0.00,Wunderground v.1.13,2013-03-18 01:41:00,
2013-03-17 18:51:00,57.4,54.5,29.98,North,350,3.0,3.0,90,0.00,,,0.00,Wunderground v.1.13,2013-03-18 01:51:00,
2013-03-17 18:56:00,57.3,54.4,29.98,NNW,345,2.0,2.0,90,0.00,,,0.00,Wunderground v.1.13,2013-03-18 01:56:00,
2013-03-17 19:01:00,57.3,54.4,29.99,NNW,347,1.0,1.0,90,0.00,,,0.00,Wunderground v.1.13,2013-03-18 02:01:00,
2013-03-17 19:11:00,57.2,54.6,29.98,NNW,347,1.0,2.0,91,0.00,,,0.00,Wunderground v.1.13,2013-03-18 02:11:00,
2013-03-17 19:26:00,57.3,54.4,29.98,NNW,346,3.0,4.0,90,0.00,,,0.00,Wunderground v.1.13,2013-03-18 02:26:00,
2013-03-17 19:41:00,57.2,54.3,29.99,NNW,344,3.0,4.0,90,0.00,,,0.00,Wunderground v.1.13,2013-03-18 02:41:00,
2013-03-17 19:56:00,57.0,54.4,29.99,NNW,340,0.0,1.0,91,0.00,,,0.00,Wunderground v.1.13,2013-03-18 02:56:00,
2013-03-17 20:06:00,57.2,54.6,30.00,NNW,340,0.0,0.0,91,0.00,,,0.00,Wunderground v.1.13,2013-03-18 03:06:00,
2013-03-17 20:16:00,57.1,54.5,30.00,NNW,340,1.0,1.0,91,0.00,,,0.00,Wunderground v.1.13,2013-03-18 03:16:00,
2013-03-17 20:31:00,57.1,54.2,30.00,NNW,340,0.0,0.0,90,0.00,,,0.00,Wunderground v.1.13,2013-03-18 03:31:00,
2013-03-17 20:51:00,57.0,54.1,29.99,NNW,340,0.0,0.0,90,0.00,,,0.00,Wunderground v.1.13,2013-03-18 03:51:00,
2013-03-17 21:01:00,57.0,54.1,30.00,NNW,340,0.0,0.0,90,0.00,,,0.00,Wunderground v.1.13,2013-03-18 04:01:00,
2013-03-17 21:11:00,56.8,53.9,30.00,NNW,340,0.0,0.0,90,0.00,,,0.00,Wunderground v.1.13,2013-03-18 04:11:00,
2013-03-17 21:21:00,56.7,53.8,30.00,NNW,340,0.0,0.0,90,0.00,,,0.00,Wunderground v.1.13,2013-03-18 04:21:00,
2013-03-17 21:31:00,56.6,53.4,30.01,NNW,340,0.0,0.0,89,0.00,,,0.00,Wunderground v.1.13,2013-03-18 04:31:00,
2013-03-17 21:41:00,56.4,53.2,30.01,NNW,340,0.0,0.0,89,0.00,,,0.00,Wunderground v.1.13,2013-03-18 04:41:00,
2013-03-17 21:46:00,56.3,53.1,30.01,NNW,340,0.0,0.0,89,0.00,,,0.00,Wunderground v.1.13,2013-03-18 04:46:00,
2013-03-17 21:56:00,55.9,52.7,30.02,NNW,340,0.0,0.0,89,0.00,,,0.00,Wunderground v.1.13,2013-03-18 04:56:00,
2013-03-17 22:01:00,55.7,52.8,30.02,NNW,340,0.0,0.0,90,0.00,,,0.00,Wunderground v.1.13,2013-03-18 05:01:00,
2013-03-17 22:11:00,55.3,52.4,30.02,NNW,340,0.0,0.0,90,0.00,,,0.00,Wunderground v.1.13,2013-03-18 05:11:00,
2013-03-17 22:16:00,55.2,52.3,30.02,NNW,340,0.0,0.0,90,0.00,,,0.00,Wunderground v.1.13,2013-03-18 05:16:00,
2013-03-17 22:26:00,54.9,52.0,30.02,NNW,340,0.0,0.0,90,0.00,,,0.00,Wunderground v.1.13,2013-03-18 05:26:00,
2013-03-17 22:31:00,54.7,51.8,30.03,NNW,340,0.0,0.0,90,0.00,,,0.00,Wunderground v.1.13,2013-03-18 05:31:00,
2013-03-17 22:36:00,54.5,51.6,30.03,NNW,340,0.0,0.0,90,0.00,,,0.00,Wunderground v.1.13,2013-03-18 05:36:00,
2013-03-17 22:51:00,54.1,51.5,30.03,NNW,340,0.0,0.0,91,0.00,,,0.00,Wunderground v.1.13,2013-03-18 05:51:00,
2013-03-17 23:01:00,53.9,51.3,30.04,NNW,340,0.0,0.0,91,0.00,,,0.00,Wunderground v.1.13,2013-03-18 06:01:00,
2013-03-17 23:26:00,54.0,51.7,30.05,NNW,340,0.0,0.0,92,0.00,,,0.00,Wunderground v.1.13,2013-03-18 06:26:00,
2013-03-17 23:31:00,54.0,51.7,30.05,NNW,340,0.0,0.0,92,0.00,,,0.00,Wunderground v.1.13,2013-03-18 06:31:00,
2013-03-17 23:36:00,53.8,51.5,30.04,NNW,340,0.0,0.0,92,0.00,,,0.00,Wunderground v.1.13,2013-03-18 06:36:00,
2013-03-17 23:51:00,53.7,51.4,30.04,NNW,336,0.0,0.0,92,0.00,,,0.00,Wunderground v.1.13,2013-03-18 06:51:00,